createdAt,value
2019-05-01T00:00:02.417Z,44.4
2019-05-01T00:05:01.261Z,44.4
2019-05-01T00:10:00.674Z,44.4
2019-05-01T00:15:01.740Z,44.4
2019-05-01T00:20:01.051Z,44.4
2019-05-01T00:25:02.199Z,43.3
2019-05-01T00:30:01.124Z,43.3
2019-05-01T00:35:02.495Z,42.2
2019-05-01T00:40:01.404Z,44.4
2019-05-01T00:45:02.533Z,42.8
2019-05-01T00:50:01.222Z,44.4
2019-05-01T00:55:00.552Z,44.4
2019-05-01T01:00:01.322Z,44.4
2019-05-01T01:05:00.696Z,44.4
2019-05-01T01:10:01.984Z,44.4
2019-05-01T01:15:00.954Z,43.3
2019-05-01T01:20:02.312Z,42.2
2019-05-01T01:25:01.236Z,44.4
2019-05-01T01:30:00.551Z,44.4
2019-05-01T01:35:01.577Z,44.9
2019-05-01T01:40:00.979Z,44.9
2019-05-01T01:45:02.025Z,44.4
2019-05-01T01:50:00.866Z,44.4
2019-05-01T01:55:01.796Z,44.4
2019-05-01T02:00:01.184Z,44.4
2019-05-01T02:05:02.468Z,42.2
2019-05-01T02:10:01.210Z,44.4
2019-05-01T02:15:02.502Z,43.9
2019-05-01T02:20:01.148Z,43.9
2019-05-01T02:25:02.198Z,42.8
2019-05-01T02:30:01.057Z,43.9
2019-05-01T02:35:02.552Z,42.2
2019-05-01T02:40:01.462Z,43.9
2019-05-01T02:45:00.570Z,43.3
2019-05-01T02:50:01.381Z,43.9
2019-05-01T02:55:00.775Z,43.3
2019-05-01T03:00:01.791Z,43.9
2019-05-01T03:05:01.015Z,43.3
2019-05-01T03:10:01.676Z,43.9
2019-05-01T03:15:00.972Z,43.3
2019-05-01T03:20:02.506Z,41.7
2019-05-01T03:25:01.261Z,43.3
2019-05-01T03:30:00.526Z,43.3
2019-05-01T03:35:01.450Z,42.8
2019-05-01T03:40:00.679Z,43.3
2019-05-01T03:45:01.610Z,43.3
2019-05-01T03:50:00.989Z,42.8
2019-05-01T03:55:02.043Z,42.8
2019-05-01T04:00:00.883Z,42.8
2019-05-01T04:05:01.987Z,42.2
2019-05-01T04:10:00.852Z,42.8
2019-05-01T04:15:02.057Z,42.8
2019-05-01T04:20:01.074Z,43.3
2019-05-01T04:25:02.166Z,42.2
2019-05-01T04:30:01.074Z,41.2
2019-05-01T04:35:02.159Z,42.2
2019-05-01T04:40:01.330Z,42.2
2019-05-01T04:45:00.549Z,42.2
2019-05-01T04:50:01.464Z,42.2
2019-05-01T04:55:00.530Z,42.2
2019-05-01T05:00:01.349Z,42.2
2019-05-01T05:05:02.442Z,40.1
2019-05-01T05:10:01.074Z,42.2
2019-05-01T05:15:02.179Z,41.2
2019-05-01T05:20:00.985Z,41.7
2019-05-01T05:25:02.388Z,40.6
2019-05-01T05:30:01.106Z,41.2
2019-05-01T05:35:02.131Z,42.2
2019-05-01T05:40:01.247Z,40.1
2019-05-01T05:45:00.519Z,41.2
2019-05-01T05:50:01.462Z,41.2
2019-05-01T05:55:00.773Z,40.1
2019-05-01T06:00:01.913Z,41.2
2019-05-01T06:05:00.820Z,41.7
2019-05-01T06:10:01.803Z,42.2
2019-05-01T06:15:02.257Z,41.7
2019-05-01T06:20:02.231Z,41.2
2019-05-01T06:25:01.017Z,41.2
2019-05-01T06:30:02.265Z,41.2
2019-05-01T06:35:02.967Z,41.2
2019-05-01T06:40:02.449Z,40.1
2019-05-01T06:45:01.358Z,41.2
2019-05-01T06:50:01.047Z,41.2
2019-05-01T06:55:01.631Z,41.2
2019-05-01T07:00:03.107Z,42.2
2019-05-01T07:05:01.841Z,42.2
2019-05-01T07:10:01.073Z,42.2
2019-05-01T07:15:02.129Z,42.2
2019-05-01T07:20:01.118Z,42.2
2019-05-01T07:25:03.880Z,43.3
2019-05-01T07:30:01.211Z,42.2
2019-05-01T07:35:03.935Z,41.2
2019-05-01T07:40:01.244Z,43.3
2019-05-01T07:45:03.754Z,41.7
2019-05-01T07:50:01.446Z,42.2
2019-05-01T07:55:00.632Z,42.8
2019-05-01T08:00:03.214Z,42.8
2019-05-01T08:05:04.812Z,42.2
2019-05-01T08:10:01.793Z,43.3
2019-05-01T08:15:00.873Z,42.8
2019-05-01T08:20:01.500Z,42.2
2019-05-01T08:25:00.659Z,42.2
2019-05-01T08:30:01.697Z,42.8
2019-05-01T08:35:02.404Z,42.2
2019-05-01T08:40:01.647Z,42.2
2019-05-01T08:45:04.952Z,41.2
2019-05-01T08:50:02.016Z,43.3
2019-05-01T08:55:04.185Z,42.8
2019-05-01T09:00:01.648Z,43.9
2019-05-01T09:05:02.776Z,43.3
2019-05-01T09:10:00.985Z,43.3
2019-05-01T09:15:01.976Z,42.2
2019-05-01T09:20:00.985Z,43.9
2019-05-01T09:25:02.038Z,44.4
2019-05-01T09:30:00.876Z,43.9
2019-05-01T09:35:14.550Z,44.4
2019-05-01T09:40:03.991Z,43.9
2019-05-01T09:45:02.172Z,43.3
2019-05-01T09:50:01.168Z,44.4
2019-05-01T09:55:02.388Z,42.2
2019-05-01T10:00:01.130Z,44.4
2019-05-01T10:05:06.621Z,42.8
2019-05-01T10:10:01.122Z,44.4
2019-05-01T10:15:02.197Z,44.4
2019-05-01T10:20:01.145Z,43.3
2019-05-01T10:25:02.222Z,44.4
2019-05-01T10:30:02.808Z,44.4
2019-05-01T10:35:02.440Z,41.7
2019-05-01T10:40:01.433Z,44.4
2019-05-01T10:45:00.518Z,44.4
2019-05-01T10:50:01.425Z,44.4
2019-05-01T10:55:00.748Z,44.4
2019-05-01T11:00:01.888Z,44.4
2019-05-01T11:05:00.808Z,44.4
2019-05-01T11:10:01.548Z,44.9
2019-05-01T11:15:00.617Z,44.4
2019-05-01T11:20:01.423Z,44.4
2019-05-01T11:25:00.697Z,44.9
2019-05-01T11:30:01.843Z,46
2019-05-01T11:35:01.128Z,44.9
2019-05-01T11:40:02.541Z,43.9
2019-05-01T11:45:01.072Z,44.9
2019-05-01T11:50:02.539Z,44.4
2019-05-01T11:55:01.299Z,45.5
2019-05-01T12:00:02.581Z,43.3
2019-05-01T12:05:01.048Z,46
2019-05-01T12:10:02.202Z,46.5
2019-05-01T12:15:00.799Z,45.5
2019-05-01T12:20:01.872Z,45.5
2019-05-01T12:25:00.845Z,45.5
2019-05-01T12:30:02.306Z,46.5
2019-05-01T12:35:01.237Z,46
2019-05-01T12:40:00.561Z,46.5
2019-05-01T12:45:01.546Z,45.5
2019-05-01T12:50:00.622Z,46
2019-05-01T12:55:01.501Z,46.5
2019-05-01T13:00:08.329Z,46.5
2019-05-01T13:05:01.609Z,47.1
2019-05-01T13:10:01.003Z,47.6
2019-05-01T13:15:02.135Z,48.2
2019-05-01T13:20:01.115Z,48.2
2019-05-01T13:25:02.197Z,48.7
2019-05-01T13:30:01.244Z,49.8
2019-05-01T13:35:02.538Z,49.8
2019-05-01T13:40:01.445Z,50.8
2019-05-01T13:45:00.605Z,50.8
2019-05-01T13:50:02.011Z,51.9
2019-05-01T13:55:00.918Z,53
2019-05-01T14:00:02.337Z,53
2019-05-01T14:05:01.333Z,52.5
2019-05-01T14:10:02.503Z,51.9
2019-05-01T14:15:01.332Z,53
2019-05-01T14:20:00.705Z,53
2019-05-01T14:25:01.602Z,53.5
2019-05-01T14:30:00.791Z,53.5
2019-05-01T14:35:01.985Z,54.1
2019-05-01T14:40:01.064Z,54.1
2019-05-01T14:45:02.198Z,54.1
2019-05-01T14:50:01.370Z,54.1
2019-05-01T14:55:00.644Z,54.1
2019-05-01T15:00:02.602Z,60.5
2019-05-01T15:05:02.506Z,51.9
2019-05-01T15:10:01.369Z,53.5
2019-05-01T15:15:02.603Z,51.9
2019-05-01T15:20:01.460Z,54.1
2019-05-01T15:25:00.631Z,54.1
2019-05-01T15:30:01.915Z,54.6
2019-05-01T15:35:00.996Z,54.1
2019-05-01T15:40:02.126Z,54.6
2019-05-01T15:45:01.201Z,54.1
2019-05-01T15:50:00.648Z,55.1
2019-05-01T15:55:01.671Z,54.1
2019-05-01T16:00:00.722Z,53
2019-05-01T16:05:02.057Z,53.5
2019-05-01T16:10:00.893Z,51.4
2019-05-01T16:15:02.196Z,52.5
2019-05-01T16:20:01.123Z,51.9
2019-05-01T16:25:02.457Z,51.9
2019-05-01T16:30:00.971Z,50.8
2019-05-01T16:35:02.107Z,50.3
2019-05-01T16:40:01.053Z,50.3
2019-05-01T16:45:02.209Z,49.8
2019-05-01T16:50:01.182Z,49.2
2019-05-01T16:55:02.246Z,48.7
2019-05-01T17:00:00.995Z,49.2
2019-05-01T17:05:02.019Z,48.7
2019-05-01T17:10:01.080Z,48.7
2019-05-01T17:15:00.991Z,48.7
2019-05-01T17:20:02.254Z,48.2
2019-05-01T17:25:01.266Z,48.7
2019-05-01T17:30:02.571Z,45.5
2019-05-01T17:35:01.787Z,48.2
2019-05-01T17:40:02.521Z,46.5
2019-05-01T17:45:01.231Z,47.6
2019-05-01T17:50:02.531Z,46
2019-05-01T17:55:01.459Z,46
2019-05-01T18:00:02.268Z,46.5
2019-05-01T18:05:01.366Z,47.6
2019-05-01T18:10:00.727Z,47.1
2019-05-01T18:15:01.767Z,47.1
2019-05-01T18:20:01.039Z,46.5
2019-05-01T18:25:00.497Z,46.5
2019-05-01T18:30:01.485Z,46.5
2019-05-01T18:35:00.880Z,45.5
2019-05-01T18:40:01.579Z,46.5
2019-05-01T18:45:00.881Z,45.5
2019-05-01T18:50:02.000Z,45.5
2019-05-01T18:55:00.895Z,45.5
2019-05-01T19:00:02.315Z,46
2019-05-01T19:05:04.046Z,46.5
2019-05-01T19:10:00.685Z,46.5
2019-05-01T19:15:05.303Z,45.5
2019-05-01T19:20:01.080Z,46.5
2019-05-01T19:25:02.439Z,43.9
2019-05-01T19:30:01.198Z,45.5
2019-05-01T19:35:02.495Z,43.3
2019-05-01T19:40:01.362Z,46
2019-05-01T19:45:00.551Z,46.5
2019-05-01T19:50:07.157Z,44.9
2019-05-01T19:55:01.292Z,44.4
2019-05-01T20:00:01.815Z,44.4
2019-05-01T20:05:00.863Z,43.3
2019-05-01T20:10:02.008Z,45.5
2019-05-01T20:15:00.990Z,43.3
2019-05-01T20:20:02.438Z,44.9
2019-05-01T20:25:01.275Z,44.9
2019-05-01T20:30:00.570Z,44.4
2019-05-01T20:35:01.566Z,44.9
2019-05-01T20:40:10.663Z,44.9
2019-05-01T20:45:04.529Z,44.4
2019-05-01T20:50:00.686Z,44.4
2019-05-01T20:55:01.939Z,45.5
2019-05-01T21:00:01.301Z,44.4
2019-05-01T21:05:02.510Z,42.2
2019-05-01T21:10:01.366Z,44.4
2019-05-01T21:15:02.422Z,42.8
2019-05-01T21:20:01.113Z,42.2
2019-05-01T21:25:02.205Z,43.3
2019-05-01T21:30:00.910Z,42.8
2019-05-01T21:35:01.891Z,42.8
2019-05-01T21:40:02.703Z,43.3
2019-05-01T21:45:04.302Z,40.6
2019-05-01T21:50:03.186Z,43.3
2019-05-01T21:55:00.541Z,42.8
2019-05-01T22:00:01.609Z,42.8
2019-05-01T22:05:03.698Z,42.2
2019-05-01T22:10:01.701Z,42.8
2019-05-01T22:15:00.745Z,42.8
2019-05-01T22:20:01.980Z,42.8
2019-05-01T22:25:00.739Z,42.2
2019-05-01T22:30:05.512Z,42.2
2019-05-01T22:35:00.757Z,42.2
2019-05-01T22:40:01.875Z,42.2
2019-05-01T22:45:01.058Z,42.2
2019-05-01T22:50:02.270Z,40.1
2019-05-01T22:55:01.217Z,41.2
2019-05-01T23:00:02.572Z,40.1
2019-05-01T23:05:01.089Z,42.2
2019-05-01T23:10:03.182Z,41.2
2019-05-01T23:15:01.197Z,41.2
2019-05-01T23:20:03.892Z,39
2019-05-01T23:25:01.152Z,41.2
2019-05-01T23:30:02.579Z,40.1
2019-05-01T23:35:01.294Z,40.6
2019-05-01T23:40:00.558Z,40.6
2019-05-01T23:45:01.492Z,40.6
2019-05-01T23:50:00.898Z,40.6
2019-05-01T23:55:02.084Z,41.7
